Time;durP1;ratioP1;P1;durP2;ratioP2;P2;SDS_P1;SDS_P2;PMS_P1;PMS_P2;Temp;Humidity;BMP_temperature;BMP_pressure;BME280_temperature;BME280_humidity;BME280_pressure;Samples;Min_cycle;Max_cycle;Signal;HPM_P1;HPM_P2
2022/01/14 00:02:16;;;;;;;465.88;51.88;;;5.50;99.90;;;;;;5081869;28;20514;-70
2022/01/14 00:04:41;;;;;;;443.48;50.28;;;5.50;99.90;;;;;;5096266;28;20044;-72
2022/01/14 00:07:08;;;;;;;447.23;52.85;;;5.60;99.90;;;;;;5092552;28;20051;-72
2022/01/14 00:09:36;;;;;;;393.90;46.92;;;5.60;99.90;;;;;;5075113;28;20706;-70
2022/01/14 00:12:09;;;;;;;379.27;47.17;;;5.60;99.90;;;;;;5077682;28;20040;-72
2022/01/14 00:14:56;;;;;;;325.27;43.60;;;5.60;99.90;;;;;;5084570;28;20041;-70
2022/01/14 00:17:22;;;;;;;399.60;50.38;;;5.60;99.90;;;;;;5069682;28;20428;-69
2022/01/14 00:19:47;;;;;;;391.33;54.00;;;5.70;99.90;;;;;;5097142;28;20117;-71
2022/01/14 00:22:15;;;;;;;400.92;53.78;;;5.70;99.90;;;;;;5093029;28;20486;-72
2022/01/14 00:33:09;;;;;;;417.65;52.40;;;5.80;99.90;;;;;;5078171;28;20082;-70
2022/01/14 00:35:36;;;;;;;418.30;56.28;;;5.80;99.90;;;;;;5083489;28;20117;-70
2022/01/14 00:38:03;;;;;;;329.50;50.33;;;5.80;99.90;;;;;;5061903;28;20028;-71
2022/01/14 00:40:29;;;;;;;380.67;56.20;;;5.70;99.90;;;;;;5074322;28;20058;-70
2022/01/14 00:42:54;;;;;;;325.20;48.15;;;5.80;99.90;;;;;;5074634;28;20085;-69
2022/01/14 00:45:21;;;;;;;304.35;46.83;;;5.70;99.90;;;;;;5081031;28;20029;-71
2022/01/14 00:47:48;;;;;;;374.00;50.35;;;5.80;99.90;;;;;;5088556;28;20441;-69
2022/01/14 00:50:15;;;;;;;421.75;59.50;;;5.90;99.90;;;;;;5072466;28;20543;-71
2022/01/14 00:52:42;;;;;;;437.92;63.00;;;5.80;99.90;;;;;;5071030;28;20051;-69
2022/01/14 00:55:12;;;;;;;377.73;53.42;;;5.70;99.90;;;;;;5078906;28;20036;-69
2022/01/14 01:00:25;;;;;;;378.08;53.65;;;5.80;99.90;;;;;;5070885;28;20394;-71
2022/01/14 01:02:51;;;;;;;403.35;58.83;;;5.70;99.90;;;;;;5098872;28;20062;-72
2022/01/14 01:05:18;;;;;;;418.05;61.38;;;5.80;99.90;;;;;;5080443;28;20041;-70
2022/01/14 01:07:46;;;;;;;465.38;63.67;;;5.70;99.90;;;;;;5082970;28;20449;-71
2022/01/14 01:10:12;;;;;;;381.10;54.85;;;5.70;99.90;;;;;;5080451;28;20032;-69
2022/01/14 01:12:51;;;;;;;482.67;64.03;;;5.70;99.90;;;;;;5085868;28;20105;-71
2022/01/14 01:15:17;;;;;;;521.83;70.55;;;5.60;99.90;;;;;;5084044;28;20053;-71
2022/01/14 01:17:44;;;;;;;478.83;66.28;;;5.60;99.90;;;;;;5074629;28;20403;-71
2022/01/14 01:20:12;;;;;;;478.52;67.85;;;5.50;99.90;;;;;;5075909;28;20430;-70
2022/01/14 01:22:38;;;;;;;438.65;64.10;;;5.50;99.90;;;;;;5071681;28;20555;-70
2022/01/14 01:25:04;;;;;;;467.00;65.18;;;5.60;99.90;;;;;;5086551;28;20123;-70
2022/01/14 01:27:36;;;;;;;452.00;63.83;;;5.50;99.90;;;;;;5071356;28;20127;-69
2022/01/14 01:30:14;;;;;;;488.73;65.30;;;5.60;99.90;;;;;;5094612;28;20040;-72
2022/01/14 01:32:40;;;;;;;493.90;65.93;;;5.60;99.90;;;;;;5071605;28;20461;-70
2022/01/14 01:35:06;;;;;;;492.42;63.53;;;5.50;99.90;;;;;;5080156;28;20047;-72
2022/01/14 01:37:31;;;;;;;408.30;59.63;;;5.60;99.90;;;;;;5076374;28;20479;-70
2022/01/14 01:39:57;;;;;;;402.88;57.25;;;5.50;99.90;;;;;;5083362;28;20032;-69
2022/01/14 01:42:27;;;;;;;404.77;57.40;;;5.60;99.90;;;;;;5078560;28;20047;-70
2022/01/14 01:44:53;;;;;;;419.23;56.63;;;5.50;99.90;;;;;;5071996;28;20055;-69
2022/01/14 01:47:21;;;;;;;457.25;59.83;;;5.50;99.90;;;;;;5077441;28;20040;-69
2022/01/14 01:49:47;;;;;;;455.65;58.80;;;5.50;99.90;;;;;;5100219;28;20067;-71
2022/01/14 01:52:13;;;;;;;505.08;64.45;;;5.60;99.90;;;;;;5082079;28;20468;-71
2022/01/14 01:54:38;;;;;;;476.35;59.75;;;5.50;99.90;;;;;;5075766;28;20054;-71
2022/01/14 01:57:04;;;;;;;475.20;60.47;;;5.50;99.90;;;;;;5076127;28;20391;-69
2022/01/14 01:59:30;;;;;;;486.23;58.47;;;5.50;99.90;;;;;;5083012;28;20082;-71
2022/01/14 02:01:57;;;;;;;379.83;50.03;;;5.60;99.90;;;;;;5087374;28;20036;-70
2022/01/14 02:04:24;;;;;;;398.13;53.97;;;5.40;99.90;;;;;;5090438;28;20131;-70
2022/01/14 02:06:51;;;;;;;403.92;53.08;;;5.50;99.90;;;;;;5058042;28;20079;-71
2022/01/14 02:09:17;;;;;;;371.90;51.42;;;5.60;99.90;;;;;;5094662;28;20036;-72
2022/01/14 02:11:42;;;;;;;323.80;44.92;;;5.50;99.90;;;;;;5080413;28;20399;-70
2022/01/14 02:14:28;;;;;;;311.02;46.28;;;5.60;99.90;;;;;;5084950;28;20029;-69
2022/01/14 02:19:43;;;;;;;331.73;46.65;;;5.50;99.90;;;;;;5091872;28;20032;-70
2022/01/14 02:22:13;;;;;;;279.55;40.72;;;5.50;99.90;;;;;;5090422;28;20040;-69
2022/01/14 02:27:08;;;;;;;363.20;47.80;;;5.50;99.90;;;;;;5076607;28;20507;-70
2022/01/14 02:29:34;;;;;;;375.77;49.83;;;5.60;99.90;;;;;;5068812;28;20028;-72
2022/01/14 02:32:00;;;;;;;332.25;49.75;;;5.50;99.90;;;;;;5073720;28;20044;-72
2022/01/14 02:34:26;;;;;;;335.67;46.72;;;5.50;99.90;;;;;;5070409;28;20044;-70
2022/01/14 02:36:52;;;;;;;345.17;47.75;;;5.50;99.90;;;;;;5073436;28;20479;-69
2022/01/14 02:39:20;;;;;;;349.42;48.63;;;5.50;99.90;;;;;;5074331;28;20067;-70
2022/01/14 02:41:47;;;;;;;344.88;49.78;;;5.60;99.90;;;;;;5077696;28;20494;-71
2022/01/14 02:44:23;;;;;;;360.27;49.22;;;5.60;99.90;;;;;;5054735;28;20558;-70
2022/01/14 02:46:54;;;;;;;370.70;46.80;;;5.50;99.90;;;;;;5073926;28;20044;-71
2022/01/14 02:49:27;;;;;;;317.77;46.15;;;5.50;99.90;;;;;;5071101;28;20039;-70
2022/01/14 02:51:52;;;;;;;353.67;50.63;;;5.50;99.90;;;;;;5078026;28;20048;-70
2022/01/14 02:54:24;;;;;;;363.52;50.05;;;5.50;99.90;;;;;;5102911;28;20031;-71
2022/01/14 02:56:53;;;;;;;338.23;47.17;;;5.50;99.90;;;;;;5059485;28;20063;-70
2022/01/14 02:59:20;;;;;;;361.08;48.38;;;5.50;99.90;;;;;;5069439;28;20070;-70
2022/01/14 03:01:48;;;;;;;338.77;43.95;;;5.40;99.90;;;;;;5070435;28;20063;-68
2022/01/14 03:04:15;;;;;;;362.98;48.03;;;5.50;99.90;;;;;;5081280;28;20040;-70
2022/01/14 03:06:42;;;;;;;384.98;48.80;;;5.50;99.90;;;;;;5072572;28;20128;-70
2022/01/14 03:09:08;;;;;;;364.45;46.58;;;5.50;99.90;;;;;;5083481;28;20078;-70
2022/01/14 03:11:46;;;;;;;333.30;46.22;;;5.50;99.90;;;;;;5069089;28;20133;-70
2022/01/14 03:14:14;;;;;;;369.13;51.47;;;5.50;99.90;;;;;;5073341;28;20045;-69
2022/01/14 03:16:41;;;;;;;311.42;44.90;;;5.50;99.90;;;;;;5075051;28;20123;-69
2022/01/14 03:19:16;;;;;;;383.73;47.25;;;5.50;99.90;;;;;;5070335;28;20044;-71
2022/01/14 03:21:42;;;;;;;388.67;51.15;;;5.50;99.90;;;;;;5074820;28;20074;-71
2022/01/14 03:24:22;;;;;;;407.85;52.33;;;5.50;99.90;;;;;;5068188;28;20037;-69
2022/01/14 03:26:50;;;;;;;322.75;47.28;;;5.50;99.90;;;;;;5071211;28;20062;-71
2022/01/14 03:29:17;;;;;;;384.10;50.13;;;5.40;99.90;;;;;;5042245;28;1020247;-70
2022/01/14 03:31:44;;;;;;;322.77;48.67;;;5.50;99.90;;;;;;5084142;28;20345;-71
2022/01/14 03:34:10;;;;;;;371.58;49.70;;;5.40;99.90;;;;;;5074992;28;20054;-70
2022/01/14 03:36:35;;;;;;;369.83;48.97;;;5.40;99.90;;;;;;5089010;28;20028;-70
2022/01/14 03:39:02;;;;;;;350.45;47.97;;;5.50;99.90;;;;;;5073091;28;20400;-69
2022/01/14 03:41:27;;;;;;;399.40;51.83;;;5.50;99.90;;;;;;5076298;28;20486;-72
2022/01/14 03:43:53;;;;;;;390.50;51.45;;;5.50;99.90;;;;;;5083221;28;20036;-70
2022/01/14 03:46:18;;;;;;;372.30;48.95;;;5.40;99.90;;;;;;5089853;28;20119;-71
2022/01/14 03:48:44;;;;;;;359.15;47.15;;;5.30;99.90;;;;;;5092557;28;20047;-71
2022/01/14 03:51:12;;;;;;;346.15;49.85;;;5.40;99.90;;;;;;5095851;28;20036;-71
2022/01/14 03:53:37;;;;;;;335.90;47.67;;;5.30;99.90;;;;;;5094152;28;20165;-70
2022/01/14 03:56:03;;;;;;;327.02;46.10;;;5.30;99.90;;;;;;5068866;28;20044;-70
2022/01/14 03:58:28;;;;;;;300.75;40.58;;;5.40;99.90;;;;;;5090313;28;20033;-69
2022/01/14 04:00:54;;;;;;;242.13;40.05;;;5.40;99.90;;;;;;5095562;28;20040;-71
2022/01/14 04:03:19;;;;;;;320.65;46.42;;;5.40;99.90;;;;;;5100344;28;20032;-72
2022/01/14 04:05:45;;;;;;;296.73;42.85;;;5.30;99.90;;;;;;5088906;28;20038;-72
2022/01/14 04:08:10;;;;;;;316.40;45.25;;;5.30;99.90;;;;;;5093207;28;20079;-70
2022/01/14 04:10:36;;;;;;;330.90;45.42;;;5.20;99.90;;;;;;5095051;28;20105;-69
2022/01/14 04:13:05;;;;;;;291.95;43.50;;;5.40;99.90;;;;;;5083291;28;20091;-70
2022/01/14 04:15:41;;;;;;;237.02;37.58;;;5.30;99.90;;;;;;5079058;28;20032;-70
2022/01/14 04:18:09;;;;;;;259.77;39.63;;;5.30;99.90;;;;;;5088872;28;20043;-70
2022/01/14 04:20:36;;;;;;;298.95;42.33;;;5.30;99.90;;;;;;5078948;28;20068;-70
2022/01/14 04:23:04;;;;;;;312.08;44.58;;;5.20;99.90;;;;;;5077188;28;20063;-69
2022/01/14 04:25:31;;;;;;;285.05;42.67;;;5.30;99.90;;;;;;5086019;28;20056;-69
2022/01/14 04:27:56;;;;;;;241.93;39.55;;;5.40;99.90;;;;;;5078362;28;20067;-70
2022/01/14 04:30:22;;;;;;;274.67;39.15;;;5.30;99.90;;;;;;5098820;28;20043;-70
2022/01/14 04:32:48;;;;;;;317.67;43.10;;;5.30;99.90;;;;;;5060007;28;20035;-70
2022/01/14 04:35:14;;;;;;;287.02;42.55;;;5.40;99.90;;;;;;5075262;28;20041;-69
2022/01/14 04:37:40;;;;;;;299.33;43.03;;;5.40;99.90;;;;;;5098216;28;20074;-70
2022/01/14 04:40:06;;;;;;;320.50;46.80;;;5.30;99.90;;;;;;5078754;28;20063;-69
2022/01/14 04:42:32;;;;;;;245.75;42.83;;;5.30;99.90;;;;;;5084936;28;20032;-70
2022/01/14 04:44:58;;;;;;;258.80;41.42;;;5.30;99.90;;;;;;5076643;28;20380;-70
2022/01/14 04:50:08;;;;;;;280.58;46.72;;;5.30;99.90;;;;;;5081337;28;20051;-69
2022/01/14 04:52:34;;;;;;;313.40;49.65;;;5.30;99.90;;;;;;5077533;28;20044;-71
2022/01/14 04:54:59;;;;;;;265.80;44.95;;;5.40;99.90;;;;;;5071997;28;20090;-70
2022/01/14 04:57:25;;;;;;;291.15;44.65;;;5.30;99.90;;;;;;5077163;28;20145;-69
2022/01/14 04:59:50;;;;;;;237.10;38.70;;;5.40;99.90;;;;;;5079371;28;20036;-70
2022/01/14 05:02:16;;;;;;;340.00;49.92;;;5.30;99.90;;;;;;5096050;28;20273;-69
2022/01/14 05:04:43;;;;;;;285.75;47.28;;;5.30;99.90;;;;;;5056554;28;20040;-71
2022/01/14 05:07:14;;;;;;;350.00;49.60;;;5.30;99.90;;;;;;5087706;28;20044;-70
2022/01/14 05:09:44;;;;;;;338.23;45.72;;;5.20;99.90;;;;;;5059806;28;20054;-70
2022/01/14 05:12:11;;;;;;;301.80;48.65;;;5.30;99.90;;;;;;5099701;28;20048;-68
2022/01/14 05:14:37;;;;;;;284.83;45.47;;;5.30;99.90;;;;;;5073214;28;20075;-70
2022/01/14 05:17:04;;;;;;;275.52;47.10;;;5.30;99.90;;;;;;5064508;28;20028;-69
2022/01/14 05:19:29;;;;;;;248.38;39.95;;;5.30;99.90;;;;;;5088108;28;20054;-70
2022/01/14 05:21:55;;;;;;;251.55;41.17;;;5.40;99.90;;;;;;5079809;28;20421;-69
2022/01/14 05:24:22;;;;;;;255.68;41.05;;;5.30;99.90;;;;;;5067941;28;20045;-70
2022/01/14 05:26:48;;;;;;;219.13;37.92;;;5.30;99.90;;;;;;5074405;28;20098;-70
2022/01/14 05:29:13;;;;;;;251.05;39.60;;;5.30;99.90;;;;;;5075369;28;20032;-70
2022/01/14 05:31:44;;;;;;;218.00;39.72;;;5.30;99.90;;;;;;5081760;28;20028;-70
2022/01/14 05:34:10;;;;;;;238.77;40.38;;;5.30;99.90;;;;;;5082155;28;20147;-69
2022/01/14 05:36:36;;;;;;;230.35;38.13;;;5.40;99.90;;;;;;5089570;28;20131;-69
2022/01/14 05:39:02;;;;;;;232.57;39.75;;;5.40;99.90;;;;;;5096549;28;20396;-70
2022/01/14 05:41:27;;;;;;;215.43;38.65;;;5.40;99.90;;;;;;5082414;28;20478;-70
2022/01/14 05:43:53;;;;;;;231.45;41.13;;;5.40;99.90;;;;;;5095553;28;20044;-69
2022/01/14 05:46:18;;;;;;;216.68;36.78;;;5.40;99.90;;;;;;5061561;28;20037;-71
2022/01/14 05:48:44;;;;;;;255.27;41.38;;;5.40;99.90;;;;;;5079129;28;20040;-69
2022/01/14 05:51:09;;;;;;;291.75;47.58;;;5.40;99.90;;;;;;5077836;28;20035;-70
2022/01/14 05:53:35;;;;;;;247.45;40.95;;;5.30;99.90;;;;;;5075708;28;20102;-70
2022/01/14 05:56:00;;;;;;;253.65;43.03;;;5.30;99.90;;;;;;5073434;28;20548;-69
2022/01/14 05:58:26;;;;;;;227.05;42.63;;;5.40;99.90;;;;;;5084415;28;20134;-69
2022/01/14 06:00:51;;;;;;;243.40;39.45;;;5.40;99.90;;;;;;5080399;28;20170;-70
2022/01/14 06:03:17;;;;;;;212.55;43.40;;;5.40;99.90;;;;;;5089886;28;20032;-70
2022/01/14 06:05:43;;;;;;;220.05;43.80;;;5.30;99.90;;;;;;5084427;28;20051;-71
2022/01/14 06:08:09;;;;;;;245.07;46.10;;;5.30;99.90;;;;;;5072713;28;20045;-70
2022/01/14 06:10:35;;;;;;;216.00;41.72;;;5.40;99.90;;;;;;5090604;28;20040;-70
2022/01/14 06:13:01;;;;;;;220.07;45.70;;;5.40;99.90;;;;;;5093691;28;20483;-72
2022/01/14 06:15:26;;;;;;;188.43;39.42;;;5.40;99.90;;;;;;5086917;28;20043;-71
2022/01/14 06:17:52;;;;;;;200.40;41.58;;;5.40;99.90;;;;;;5102250;28;20043;-70
2022/01/14 06:20:17;;;;;;;195.18;44.05;;;5.40;99.90;;;;;;5082209;28;20479;-69
2022/01/14 06:22:43;;;;;;;193.23;45.45;;;5.40;99.90;;;;;;5079906;28;20201;-73
2022/01/14 06:25:09;;;;;;;211.38;47.03;;;5.30;99.90;;;;;;5075947;28;20052;-70
2022/01/14 06:27:34;;;;;;;196.10;45.72;;;5.30;99.90;;;;;;5082168;28;20116;-71
2022/01/14 06:30:01;;;;;;;164.25;39.80;;;5.30;99.90;;;;;;5077863;28;20419;-70
2022/01/14 06:32:26;;;;;;;160.38;35.95;;;5.40;99.90;;;;;;5083911;28;20048;-69
2022/01/14 06:34:52;;;;;;;182.52;42.20;;;5.40;99.90;;;;;;5099720;28;20036;-69
2022/01/14 06:37:17;;;;;;;153.30;39.55;;;5.50;99.90;;;;;;5097876;28;20059;-70
2022/01/14 06:39:43;;;;;;;144.73;35.92;;;5.50;99.90;;;;;;5081806;28;20043;-69
2022/01/14 06:42:09;;;;;;;150.52;39.22;;;5.50;99.90;;;;;;5078006;28;20478;-69
2022/01/14 06:44:34;;;;;;;148.20;37.97;;;5.50;99.90;;;;;;5080963;28;20036;-71
2022/01/14 06:47:00;;;;;;;119.07;30.17;;;5.50;99.90;;;;;;5099369;28;20044;-71
2022/01/14 06:49:25;;;;;;;128.75;34.78;;;5.50;99.90;;;;;;5076692;28;20519;-69
2022/01/14 06:51:51;;;;;;;129.88;35.03;;;5.50;99.90;;;;;;5073394;28;20051;-70
2022/01/14 06:54:16;;;;;;;113.60;28.88;;;5.50;99.90;;;;;;5093464;28;20037;-70
2022/01/14 06:56:42;;;;;;;130.35;35.97;;;5.50;99.90;;;;;;5096745;28;20205;-70
2022/01/14 06:59:09;;;;;;;115.28;31.67;;;5.60;99.90;;;;;;5079534;28;20035;-70
2022/01/14 07:01:34;;;;;;;112.30;32.53;;;5.60;99.90;;;;;;5079765;28;20065;-69
2022/01/14 07:04:00;;;;;;;122.47;35.85;;;5.60;99.90;;;;;;5079054;28;20115;-70
2022/01/14 07:06:25;;;;;;;116.95;33.88;;;5.60;99.90;;;;;;5099144;28;20044;-69
2022/01/14 07:08:51;;;;;;;106.43;32.20;;;5.60;99.90;;;;;;5095874;28;20047;-69
2022/01/14 07:11:18;;;;;;;123.18;35.80;;;5.70;99.90;;;;;;5102823;28;20395;-69
2022/01/14 07:13:43;;;;;;;130.73;38.08;;;5.70;99.90;;;;;;5081441;28;20048;-70
2022/01/14 07:16:09;;;;;;;129.88;37.90;;;5.70;99.90;;;;;;5072731;28;20039;-69
2022/01/14 07:18:34;;;;;;;129.10;39.10;;;5.70;99.90;;;;;;5081400;28;20068;-69
2022/01/14 07:21:00;;;;;;;134.40;39.78;;;5.70;99.90;;;;;;5085868;28;20077;-70
2022/01/14 07:23:25;;;;;;;132.38;37.85;;;5.60;99.90;;;;;;5092515;28;20036;-69
2022/01/14 07:25:51;;;;;;;133.23;38.58;;;5.60;99.90;;;;;;5080852;28;20044;-70
2022/01/14 07:28:16;;;;;;;138.02;36.15;;;5.60;99.90;;;;;;5071109;28;20044;-70
2022/01/14 07:30:42;;;;;;;125.65;36.67;;;5.60;99.90;;;;;;5097902;28;20498;-70
2022/01/14 07:33:08;;;;;;;128.40;36.30;;;5.50;99.90;;;;;;5088709;28;20169;-70
2022/01/14 07:35:33;;;;;;;136.98;37.28;;;5.60;99.90;;;;;;5089806;28;20044;-70
2022/01/14 07:37:59;;;;;;;140.02;39.95;;;5.50;99.90;;;;;;5073693;28;20032;-70
2022/01/14 07:40:25;;;;;;;141.93;38.33;;;5.50;99.90;;;;;;5085203;28;20048;-70
2022/01/14 07:42:50;;;;;;;142.95;41.42;;;5.60;99.90;;;;;;5074249;28;20040;-69
2022/01/14 07:45:16;;;;;;;140.38;38.05;;;5.50;99.90;;;;;;5081242;28;20395;-70
2022/01/14 07:47:41;;;;;;;141.15;42.05;;;5.60;99.90;;;;;;5094619;28;20032;-69
2022/01/14 07:50:07;;;;;;;160.40;43.40;;;5.60;99.90;;;;;;5090198;28;20048;-70
2022/01/14 07:52:33;;;;;;;142.13;41.58;;;5.50;99.90;;;;;;5102676;28;20036;-70
2022/01/14 07:54:58;;;;;;;143.38;41.10;;;5.50;99.90;;;;;;5093061;28;20048;-71
2022/01/14 07:57:24;;;;;;;137.43;40.28;;;5.50;99.90;;;;;;5097920;28;20040;-70
2022/01/14 07:59:49;;;;;;;132.80;36.92;;;5.60;99.90;;;;;;5084696;28;20482;-70
2022/01/14 08:02:15;;;;;;;125.35;37.08;;;5.60;99.90;;;;;;5074949;28;20028;-70
2022/01/14 08:04:41;;;;;;;126.57;37.75;;;5.60;99.90;;;;;;5083882;28;20032;-70
2022/01/14 08:07:11;;;;;;;145.65;39.08;;;5.70;99.90;;;;;;5093225;28;20380;-70
2022/01/14 08:09:42;;;;;;;140.10;40.17;;;5.70;99.90;;;;;;5075303;28;20080;-69
2022/01/14 08:12:09;;;;;;;140.75;42.83;;;5.70;99.90;;;;;;5078856;28;20051;-70
2022/01/14 08:14:36;;;;;;;150.10;44.45;;;5.70;99.90;;;;;;5079892;28;20388;-70
2022/01/14 08:17:01;;;;;;;125.13;38.15;;;5.70;99.90;;;;;;5086498;28;20040;-69
2022/01/14 08:19:32;;;;;;;147.18;41.55;;;5.70;99.90;;;;;;5080117;28;20031;-71
2022/01/14 08:21:59;;;;;;;127.00;37.88;;;5.80;99.90;;;;;;5087700;28;20072;-70
2022/01/14 08:24:24;;;;;;;126.30;36.42;;;5.80;99.90;;;;;;5086825;28;20106;-70
2022/01/14 08:26:50;;;;;;;138.63;34.33;;;5.80;99.90;;;;;;5097501;28;20566;-70
2022/01/14 08:29:15;;;;;;;127.78;37.20;;;5.80;99.90;;;;;;5110072;28;20047;-70
2022/01/14 08:31:41;;;;;;;133.90;37.13;;;5.90;99.90;;;;;;5091576;28;20456;-70
2022/01/14 08:34:06;;;;;;;132.77;36.38;;;5.80;99.90;;;;;;5063928;28;20046;-71
2022/01/14 08:36:32;;;;;;;129.80;36.05;;;5.90;99.90;;;;;;5075723;28;20070;-70
2022/01/14 08:38:59;;;;;;;118.28;35.13;;;5.90;99.90;;;;;;5083795;28;20040;-70
2022/01/14 08:41:29;;;;;;;118.18;35.22;;;5.80;99.90;;;;;;5094738;28;20063;-70
2022/01/14 08:43:56;;;;;;;127.40;36.67;;;5.80;99.90;;;;;;5076251;28;20042;-70
2022/01/14 08:46:22;;;;;;;132.20;35.17;;;6.00;99.90;;;;;;5079497;28;20048;-70
2022/01/14 08:48:47;;;;;;;117.70;33.58;;;5.90;99.90;;;;;;5079936;28;20431;-70
2022/01/14 08:51:13;;;;;;;118.45;32.88;;;6.00;99.90;;;;;;5078488;28;20050;-70
2022/01/14 08:53:38;;;;;;;120.18;34.75;;;5.90;99.90;;;;;;5093960;28;20127;-70
2022/01/14 08:56:04;;;;;;;106.88;34.13;;;6.00;99.90;;;;;;5098612;28;20516;-70
2022/01/14 08:58:30;;;;;;;127.22;34.10;;;6.10;99.90;;;;;;5091153;28;20031;-70
2022/01/14 09:00:56;;;;;;;104.32;30.30;;;6.10;99.90;;;;;;5068350;28;20119;-70
2022/01/14 09:03:22;;;;;;;120.82;34.70;;;6.00;99.90;;;;;;5091151;28;20044;-70
2022/01/14 09:05:48;;;;;;;119.78;32.28;;;6.10;99.90;;;;;;5081275;28;20047;-70
2022/01/14 09:08:13;;;;;;;116.03;32.45;;;6.20;99.90;;;;;;5077225;28;20048;-69
2022/01/14 09:10:39;;;;;;;111.32;30.63;;;6.20;99.90;;;;;;5097103;28;20044;-69
2022/01/14 09:13:05;;;;;;;102.47;27.63;;;6.10;99.90;;;;;;5074802;28;20096;-72
2022/01/14 09:15:30;;;;;;;107.25;29.65;;;6.20;99.90;;;;;;5084726;28;20095;-72
2022/01/14 09:17:56;;;;;;;100.00;28.55;;;6.30;99.90;;;;;;5092425;28;20506;-72
2022/01/14 09:20:22;;;;;;;101.05;28.52;;;6.30;99.90;;;;;;5076364;28;20032;-72
2022/01/14 09:22:48;;;;;;;104.88;29.92;;;6.20;99.90;;;;;;5081573;28;20028;-71
2022/01/14 09:25:16;;;;;;;105.68;30.13;;;6.20;99.90;;;;;;5077222;28;20044;-70
2022/01/14 09:27:42;;;;;;;111.03;31.40;;;6.30;99.90;;;;;;5077204;28;20115;-72
2022/01/14 09:30:08;;;;;;;98.22;28.10;;;6.20;99.90;;;;;;5089803;28;20604;-70
2022/01/14 09:32:34;;;;;;;94.45;28.35;;;6.30;99.90;;;;;;5084065;28;20059;-70
2022/01/14 09:35:03;;;;;;;101.75;28.85;;;6.40;99.90;;;;;;5092011;28;20040;-71
2022/01/14 09:37:29;;;;;;;90.45;25.88;;;6.40;99.90;;;;;;5083088;28;20044;-70
2022/01/14 09:39:55;;;;;;;96.32;24.33;;;6.50;99.90;;;;;;5080607;28;20471;-70
2022/01/14 09:42:21;;;;;;;95.35;25.80;;;6.50;99.90;;;;;;5074372;28;20127;-70
2022/01/14 09:44:46;;;;;;;95.68;25.23;;;6.50;99.90;;;;;;5073911;28;20133;-71
2022/01/14 09:47:20;;;;;;;90.43;25.20;;;6.50;99.90;;;;;;5094435;28;20404;-71
2022/01/14 09:49:46;;;;;;;92.10;26.25;;;6.50;99.90;;;;;;5076248;28;20044;-69
2022/01/14 09:52:13;;;;;;;77.88;24.13;;;6.50;99.90;;;;;;5073775;28;20431;-71
2022/01/14 09:54:42;;;;;;;94.15;24.30;;;6.50;99.90;;;;;;5073140;28;20090;-70
2022/01/14 09:57:09;;;;;;;81.25;22.88;;;6.60;99.90;;;;;;5082583;28;20036;-73
2022/01/14 09:59:35;;;;;;;74.07;22.95;;;6.60;99.90;;;;;;5088735;28;20102;-73
2022/01/14 10:02:01;;;;;;;87.10;22.83;;;6.70;99.90;;;;;;5076969;28;20430;-70
2022/01/14 10:04:26;;;;;;;75.82;21.52;;;6.60;99.90;;;;;;5093298;28;20049;-71
2022/01/14 10:06:53;;;;;;;66.43;20.20;;;6.70;99.90;;;;;;5075405;28;20040;-70
2022/01/14 10:09:29;;;;;;;86.03;23.20;;;6.70;99.90;;;;;;5077245;28;20046;-71
2022/01/14 10:12:05;;;;;;;80.97;23.20;;;6.80;99.90;;;;;;5072739;28;20422;-71
2022/01/14 10:14:36;;;;;;;79.35;22.73;;;6.80;99.90;;;;;;5080965;28;20395;-72
2022/01/14 10:17:05;;;;;;;73.20;20.92;;;6.80;99.90;;;;;;5074579;28;20053;-71
2022/01/14 10:19:42;;;;;;;69.22;20.83;;;6.80;99.90;;;;;;5076252;28;20506;-70
2022/01/14 10:22:30;;;;;;;79.47;20.60;;;6.90;99.90;;;;;;5080129;28;20048;-71
2022/01/14 10:25:06;;;;;;;67.10;19.77;;;6.90;99.90;;;;;;5077343;28;20115;-70
2022/01/14 10:27:39;;;;;;;66.68;21.00;;;6.90;99.90;;;;;;5071856;28;20048;-71
2022/01/14 10:30:16;;;;;;;72.38;19.00;;;7.10;99.90;;;;;;5079725;28;20078;-71
2022/01/14 10:32:43;;;;;;;74.18;21.17;;;7.10;99.90;;;;;;5073417;28;20051;-71
2022/01/14 10:35:12;;;;;;;67.68;18.45;;;7.00;99.90;;;;;;5080262;28;20044;-70
2022/01/14 10:37:38;;;;;;;62.50;18.05;;;7.00;99.90;;;;;;5073637;28;20043;-70
2022/01/14 10:40:13;;;;;;;57.55;16.92;;;7.10;99.90;;;;;;5081073;28;20383;-70
2022/01/14 10:42:40;;;;;;;56.17;17.52;;;7.10;99.90;;;;;;5080530;28;20075;-70
2022/01/14 10:45:23;;;;;;;50.92;14.38;;;7.20;99.90;;;;;;5081735;28;20253;-70
2022/01/14 10:47:52;;;;;;;39.50;11.57;;;7.20;99.90;;;;;;5069828;28;20139;-70
2022/01/14 10:50:24;;;;;;;50.92;14.93;;;7.20;99.90;;;;;;5077405;28;20040;-70
2022/01/14 10:52:50;;;;;;;54.53;14.23;;;7.20;99.90;;;;;;5078718;28;20040;-70
2022/01/14 10:55:27;;;;;;;51.17;14.05;;;7.20;99.90;;;;;;5085118;28;20432;-71
2022/01/14 10:57:53;;;;;;;55.92;15.88;;;7.30;99.90;;;;;;5074271;28;20406;-71
2022/01/14 11:00:19;;;;;;;50.17;12.27;;;7.30;99.90;;;;;;5087417;28;20036;-70
2022/01/14 11:02:52;;;;;;;40.42;13.00;;;7.30;99.90;;;;;;5088185;28;20491;-72
2022/01/14 11:05:23;;;;;;;37.60;12.43;;;7.30;99.90;;;;;;5089943;28;20044;-70
2022/01/14 11:07:51;;;;;;;38.33;10.75;;;7.40;99.90;;;;;;5085671;28;20058;-70
2022/01/14 11:10:23;;;;;;;41.90;12.00;;;7.40;99.90;;;;;;5072978;28;20087;-70
2022/01/14 11:12:50;;;;;;;44.80;12.35;;;7.30;99.90;;;;;;5082960;28;20050;-70
2022/01/14 11:15:16;;;;;;;47.38;12.48;;;7.40;99.90;;;;;;5077589;28;20041;-70
2022/01/14 11:17:51;;;;;;;50.67;11.98;;;7.40;99.90;;;;;;5077559;28;20036;-71
2022/01/14 11:20:26;;;;;;;45.22;11.45;;;7.40;99.90;;;;;;5074345;28;20506;-70
2022/01/14 11:25:39;;;;;;;29.42;9.52;;;7.40;99.90;;;;;;5076757;28;20070;-71
2022/01/14 11:28:06;;;;;;;48.50;13.18;;;7.40;99.90;;;;;;5085177;28;20043;-70
2022/01/14 11:30:38;;;;;;;42.50;11.93;;;7.50;99.90;;;;;;5086393;28;20557;-71
2022/01/14 11:33:05;;;;;;;36.80;9.68;;;7.50;99.90;;;;;;5097423;28;20133;-71
2022/01/14 11:35:32;;;;;;;40.15;10.10;;;7.50;99.90;;;;;;5086009;28;20034;-69
2022/01/14 11:37:58;;;;;;;48.30;12.38;;;7.50;99.90;;;;;;5085648;28;20513;-69
2022/01/14 11:40:24;;;;;;;46.00;12.05;;;7.50;99.90;;;;;;5093319;28;20043;-70
2022/01/14 11:43:02;;;;;;;41.72;10.35;;;7.50;99.90;;;;;;5092285;28;20032;-69
2022/01/14 11:45:42;;;;;;;33.95;10.93;;;7.50;99.90;;;;;;5091294;28;20047;-71
2022/01/14 11:48:28;;;;;;;35.10;8.02;;;7.50;99.90;;;;;;5084085;28;20043;-71
2022/01/14 11:51:03;;;;;;;37.70;11.32;;;7.50;99.90;;;;;;5090112;28;20130;-71
2022/01/14 11:53:37;;;;;;;41.72;9.90;;;7.40;99.90;;;;;;5088994;28;20046;-70
2022/01/14 11:56:07;;;;;;;34.28;8.50;;;7.50;99.90;;;;;;5092110;28;20055;-70
2022/01/14 11:58:33;;;;;;;36.53;9.52;;;7.50;99.90;;;;;;5096408;28;20043;-71
2022/01/14 12:00:59;;;;;;;31.08;9.20;;;7.50;99.90;;;;;;5090571;28;20044;-71
2022/01/14 12:03:28;;;;;;;34.03;9.52;;;7.50;99.90;;;;;;5088489;28;20036;-71
2022/01/14 12:05:59;;;;;;;40.75;8.60;;;7.60;99.90;;;;;;5082946;28;20048;-72
2022/01/14 12:08:33;;;;;;;30.55;9.52;;;7.40;99.90;;;;;;5076755;28;20433;-71
2022/01/14 12:11:09;;;;;;;33.33;8.00;;;7.40;99.90;;;;;;5088761;28;20495;-70
2022/01/14 12:13:58;;;;;;;31.85;9.13;;;7.40;99.90;;;;;;5090137;28;20495;-71
2022/01/14 12:17:00;;;;;;;29.90;7.28;;;7.50;99.90;;;;;;5086517;28;20044;-68
2022/01/14 12:19:28;;;;;;;24.25;6.15;;;7.40;99.90;;;;;;5085908;28;20036;-71
2022/01/14 12:21:55;;;;;;;22.77;7.35;;;7.50;99.90;;;;;;5087224;28;20036;-72
2022/01/14 12:24:27;;;;;;;23.88;6.88;;;7.50;99.90;;;;;;5089056;28;20024;-71
2022/01/14 12:26:55;;;;;;;21.35;5.45;;;7.50;99.90;;;;;;5088307;28;20044;-70
2022/01/14 12:29:31;;;;;;;29.63;7.07;;;7.50;99.90;;;;;;5088281;28;20547;-71
2022/01/14 12:32:20;;;;;;;25.63;6.05;;;7.40;99.90;;;;;;5104588;28;20269;-72
2022/01/14 12:34:55;;;;;;;27.17;7.68;;;7.50;99.90;;;;;;5069869;28;20463;-70
2022/01/14 12:37:27;;;;;;;24.88;6.38;;;7.50;99.90;;;;;;5086821;28;20036;-70
2022/01/14 12:39:55;;;;;;;23.05;6.97;;;7.50;99.90;;;;;;5086521;28;20075;-70
2022/01/14 12:42:22;;;;;;;17.10;5.07;;;7.50;99.90;;;;;;5086235;28;20081;-69
2022/01/14 12:44:51;;;;;;;25.58;6.57;;;7.50;99.90;;;;;;5067873;28;20047;-70
2022/01/14 12:47:27;;;;;;;31.17;6.93;;;7.50;99.90;;;;;;5083783;28;20372;-70
2022/01/14 12:49:53;;;;;;;22.08;6.40;;;7.50;99.90;;;;;;5088563;28;20044;-71
2022/01/14 12:52:37;;;;;;;34.25;7.53;;;7.40;99.90;;;;;;5087901;28;20071;-71
2022/01/14 12:55:08;;;;;;;28.80;6.70;;;7.50;99.90;;;;;;5105313;28;20044;-70
2022/01/14 12:57:34;;;;;;;30.75;6.93;;;7.50;99.90;;;;;;5088832;28;20035;-71